Fast Ferries Andros — SVQE — position and weather

sailwx.info

Track history (hours):
 
Tides and Currents Weather Stations Pressure Air Temp Water Temp Dewpoint Dewpoint Depression Visibility Wind Speed Wind Dir Waves Ship Positions

Fast Ferries Andros

Last reported at 2017-Sep-24 08:30 UTC. Time now 2017-Sep-24 08:51 UTC.
Position N 37°31' E 025°10'.

Length 115 m.

Type: Other ship. MMSI: 237955000.

Date/timePositionNaut miles runAvg speedWind from/ knotsBaromVisibWave heightAir tempDewpointWater temp
2017-Sep-24 08:30N 37°31' E 025°10'3 6.0
2017-Sep-24 08:00N 37°33' E 025°07'  
2017-Sep-21 11:23N 37°33' E 025°06'3 7.3
2017-Sep-21 11:00N 37°32' E 025°09'612.8
2017-Sep-21 10:30N 37°29' E 025°16'3 6.0
2017-Sep-21 10:01N 37°28' E 025°20'0 0.0
2017-Sep-21 09:30N 37°28' E 025°20'0 0.1
2017-Sep-21 09:00N 37°28' E 025°20'714.2
2017-Sep-21 08:30N 37°31' E 025°11'4 8.7
2017-Sep-21 08:00N 37°33' E 025°07'56 3.3
2017-Sep-20 14:56N 38°01' E 024°05'5215.3
2017-Sep-20 11:32N 37°35' E 025°02'219.0
2017-Sep-20 11:25N 37°34' E 025°04'410.1
2017-Sep-20 11:00N 37°32' E 025°09'510.9
2017-Sep-20 10:30N 37°29' E 025°15'4 7.8
2017-Sep-20 10:00N 37°28' E 025°20'0 0.0
2017-Sep-20 09:30N 37°28' E 025°20'2 4.6
2017-Sep-20 09:00N 37°29' E 025°17'714.1
2017-Sep-20 08:30N 37°32' E 025°09'5 9.7
2017-Sep-20 08:00N 37°34' E 025°04'0 0.0
2017-Sep-19 11:27N 37°34' E 025°04'5 9.0
2017-Sep-19 10:58N 37°32' E 025°09'813.6
2017-Sep-19 10:23N 37°28' E 025°18'2 4.1
2017-Sep-19 10:00N 37°28' E 025°20'0 0.0
2017-Sep-19 09:30N 37°28' E 025°20'0 0.1
2017-Sep-19 09:00N 37°28' E 025°20'815.8
2017-Sep-19 08:30N 37°31' E 025°10'4 8.7
2017-Sep-19 08:00N 37°33' E 025°06'1 0.0
2017-Sep-18 11:17N 37°33' E 025°06'2 8.5
2017-Sep-18 11:00N 37°32' E 025°09'611.3
2017-Sep-18 10:31N 37°29' E 025°15'4 7.3
2017-Sep-18 10:01N 37°28' E 025°20'0 0.0
2017-Sep-18 09:30N 37°28' E 025°20'0 0.0
2017-Sep-18 09:00N 37°28' E 025°20'813.7
2017-Sep-18 08:26N 37°31' E 025°10'3 7.2
2017-Sep-18 08:00N 37°33' E 025°07'5 0.3
2017-Sep-17 14:22N 37°36' E 025°02'718.0
2017-Sep-17 14:01N 37°32' E 025°09'1 1.8
2017-Sep-17 13:30N 37°31' E 025°10'917.0
2017-Sep-17 13:00N 37°28' E 025°20'0 0.0
2017-Sep-17 12:30N 37°28' E 025°20'0 0.0
2017-Sep-17 12:00N 37°28' E 025°20'0 0.0
2017-Sep-17 11:30N 37°28' E 025°20'0 0.0
2017-Sep-17 11:00N 37°28' E 025°20'0 0.0
2017-Sep-17 10:30N 37°28' E 025°20'0 0.0
2017-Sep-17 10:00N 37°28' E 025°20'0 0.0
2017-Sep-17 09:30N 37°28' E 025°20'0 0.7
2017-Sep-17 09:00N 37°28' E 025°19'815.8
2017-Sep-17 08:29N 37°31' E 025°10'5 0.3
2017-Sep-16 14:16N 37°34' E 025°05'415.8
2017-Sep-16 14:00N 37°32' E 025°09'1 2.1
2017-Sep-16 13:30N 37°31' E 025°10'817.3
2017-Sep-16 13:00N 37°28' E 025°20'0 0.0
2017-Sep-16 12:30N 37°28' E 025°20'0 0.0
2017-Sep-16 12:00N 37°28' E 025°20'0 0.0
2017-Sep-16 11:30N 37°28' E 025°20'0 0.0
2017-Sep-16 11:00N 37°28' E 025°20'0 0.0
2017-Sep-16 10:30N 37°28' E 025°20'0 0.0
2017-Sep-16 10:00N 37°28' E 025°20'0 0.0
2017-Sep-16 09:30N 37°28' E 025°20'814.1
2017-Sep-16 08:57N 37°31' E 025°11'1 3.4
2017-Sep-16 08:31N 37°32' E 025°09'3 0.1
2017-Sep-15 11:16N 37°33' E 025°06'2 9.3
2017-Sep-15 11:00N 37°32' E 025°09'712.2
2017-Sep-15 10:25N 37°28' E 025°17'2 5.4
2017-Sep-15 10:00N 37°28' E 025°20'0 0.0
2017-Sep-15 09:30N 37°28' E 025°20'0 0.2
2017-Sep-15 09:00N 37°28' E 025°20'916.3
2017-Sep-15 08:28N 37°31' E 025°10'4 7.8
2017-Sep-15 08:00N 37°33' E 025°06'1 0.1
2017-Sep-14 11:18N 37°33' E 025°07'2 6.0
2017-Sep-14 10:58N 37°32' E 025°09'713.4
2017-Sep-14 10:25N 37°28' E 025°17'2 5.2
2017-Sep-14 10:00N 37°28' E 025°20'0 0.0
2017-Sep-14 09:30N 37°28' E 025°20'0 0.0
2017-Sep-14 09:00N 37°28' E 025°20'  
Track history (hours):
 
Tides and Currents Weather Stations Pressure Air Temp Water Temp Dewpoint Dewpoint Depression Visibility Wind Speed Wind Dir Waves Ship Positions

Fast Ferries Andros

Last reported at 2017-Sep-24 08:30 UTC. Time now 2017-Sep-24 08:51 UTC.
Position N 37°31' E 025°10'.

Length 115 m.

Type: Other ship. MMSI: 237955000.

Date/timePositionNaut miles runAvg speedWind from/ knotsBaromVisibWave heightAir tempDewpointWater temp
2017-Sep-24 08:30N 37°31' E 025°10'3 6.0
2017-Sep-24 08:00N 37°33' E 025°07'  
2017-Sep-21 11:23N 37°33' E 025°06'3 7.3
2017-Sep-21 11:00N 37°32' E 025°09'612.8
2017-Sep-21 10:30N 37°29' E 025°16'3 6.0
2017-Sep-21 10:01N 37°28' E 025°20'0 0.0
2017-Sep-21 09:30N 37°28' E 025°20'0 0.1
2017-Sep-21 09:00N 37°28' E 025°20'714.2
2017-Sep-21 08:30N 37°31' E 025°11'4 8.7
2017-Sep-21 08:00N 37°33' E 025°07'56 3.3
2017-Sep-20 14:56N 38°01' E 024°05'5215.3
2017-Sep-20 11:32N 37°35' E 025°02'219.0
2017-Sep-20 11:25N 37°34' E 025°04'410.1
2017-Sep-20 11:00N 37°32' E 025°09'510.9
2017-Sep-20 10:30N 37°29' E 025°15'4 7.8
2017-Sep-20 10:00N 37°28' E 025°20'0 0.0
2017-Sep-20 09:30N 37°28' E 025°20'2 4.6
2017-Sep-20 09:00N 37°29' E 025°17'714.1
2017-Sep-20 08:30N 37°32' E 025°09'5 9.7
2017-Sep-20 08:00N 37°34' E 025°04'0 0.0
2017-Sep-19 11:27N 37°34' E 025°04'5 9.0
2017-Sep-19 10:58N 37°32' E 025°09'813.6
2017-Sep-19 10:23N 37°28' E 025°18'2 4.1
2017-Sep-19 10:00N 37°28' E 025°20'0 0.0
2017-Sep-19 09:30N 37°28' E 025°20'0 0.1
2017-Sep-19 09:00N 37°28' E 025°20'815.8
2017-Sep-19 08:30N 37°31' E 025°10'4 8.7
2017-Sep-19 08:00N 37°33' E 025°06'1 0.0
2017-Sep-18 11:17N 37°33' E 025°06'2 8.5
2017-Sep-18 11:00N 37°32' E 025°09'611.3
2017-Sep-18 10:31N 37°29' E 025°15'4 7.3
2017-Sep-18 10:01N 37°28' E 025°20'0 0.0
2017-Sep-18 09:30N 37°28' E 025°20'0 0.0
2017-Sep-18 09:00N 37°28' E 025°20'813.7
2017-Sep-18 08:26N 37°31' E 025°10'3 7.2
2017-Sep-18 08:00N 37°33' E 025°07'5 0.3
2017-Sep-17 14:22N 37°36' E 025°02'718.0
2017-Sep-17 14:01N 37°32' E 025°09'1 1.8
2017-Sep-17 13:30N 37°31' E 025°10'917.0
2017-Sep-17 13:00N 37°28' E 025°20'0 0.0
2017-Sep-17 12:30N 37°28' E 025°20'0 0.0
2017-Sep-17 12:00N 37°28' E 025°20'0 0.0
2017-Sep-17 11:30N 37°28' E 025°20'0 0.0
2017-Sep-17 11:00N 37°28' E 025°20'0 0.0
2017-Sep-17 10:30N 37°28' E 025°20'0 0.0
2017-Sep-17 10:00N 37°28' E 025°20'0 0.0
2017-Sep-17 09:30N 37°28' E 025°20'0 0.7
2017-Sep-17 09:00N 37°28' E 025°19'815.8
2017-Sep-17 08:29N 37°31' E 025°10'5 0.3
2017-Sep-16 14:16N 37°34' E 025°05'415.8
2017-Sep-16 14:00N 37°32' E 025°09'1 2.1
2017-Sep-16 13:30N 37°31' E 025°10'817.3
2017-Sep-16 13:00N 37°28' E 025°20'0 0.0
2017-Sep-16 12:30N 37°28' E 025°20'0 0.0
2017-Sep-16 12:00N 37°28' E 025°20'0 0.0
2017-Sep-16 11:30N 37°28' E 025°20'0 0.0
2017-Sep-16 11:00N 37°28' E 025°20'0 0.0
2017-Sep-16 10:30N 37°28' E 025°20'0 0.0
2017-Sep-16 10:00N 37°28' E 025°20'0 0.0
2017-Sep-16 09:30N 37°28' E 025°20'814.1
2017-Sep-16 08:57N 37°31' E 025°11'1 3.4
2017-Sep-16 08:31N 37°32' E 025°09'3 0.1
2017-Sep-15 11:16N 37°33' E 025°06'2 9.3
2017-Sep-15 11:00N 37°32' E 025°09'712.2
2017-Sep-15 10:25N 37°28' E 025°17'2 5.4
2017-Sep-15 10:00N 37°28' E 025°20'0 0.0
2017-Sep-15 09:30N 37°28' E 025°20'0 0.2
2017-Sep-15 09:00N 37°28' E 025°20'916.3
2017-Sep-15 08:28N 37°31' E 025°10'4 7.8
2017-Sep-15 08:00N 37°33' E 025°06'1 0.1
2017-Sep-14 11:18N 37°33' E 025°07'2 6.0
2017-Sep-14 10:58N 37°32' E 025°09'713.4
2017-Sep-14 10:25N 37°28' E 025°17'2 5.2
2017-Sep-14 10:00N 37°28' E 025°20'0 0.0
2017-Sep-14 09:30N 37°28' E 025°20'0 0.0
2017-Sep-14 09:00N 37°28' E 025°20'  

Dump ship's entire track history